Maynard, Minnesota
Current Conditions -  °F | °C
As of 3:52 AM on Saturday 25 Oct 2014 (Local Time) from KGDB Reporting Station
Clear Clear  
Wind Chill: 51°   Ceiling: Unl
Heat Index: 51°   Visibility: 10mi
Dew Point: 39°   Wind: 8mph
Humidity: 63%   Direction: 290°WNW
Pressure: 30.05"   Gusts: NA
Location:  44.91°N, 95.47°W
Report Text: KGDB 250852Z AUTO 29007KT 10SM CLR 11/04 A3005 RMK AO2 T01080041
Loading
Personal Weather Stations






























Interactive Weather Map
Tropical Storm Tracking
New forecast layout! Learn more

10-Day Weather Forecast

Advertisements
Track Severe Weather on mobile